sensor_id;sensor_type;location;lat;lon;timestamp;P1;durP1;ratioP1;P2;durP2;ratioP2
18445;SDS011;9352;50.888;4.466;2024-01-16T00:00:56;16.52;;;3.85;;
18445;SDS011;9352;50.888;4.466;2024-01-16T00:03:24;13.53;;;3.80;;
18445;SDS011;9352;50.888;4.466;2024-01-16T00:05:51;9.73;;;3.50;;
18445;SDS011;9352;50.888;4.466;2024-01-16T00:08:18;10.73;;;3.40;;
18445;SDS011;9352;50.888;4.466;2024-01-16T00:10:45;11.03;;;3.63;;
18445;SDS011;9352;50.888;4.466;2024-01-16T00:13:12;17.07;;;3.63;;
18445;SDS011;9352;50.888;4.466;2024-01-16T00:15:39;12.13;;;3.77;;
18445;SDS011;9352;50.888;4.466;2024-01-16T00:18:06;11.57;;;3.70;;
18445;SDS011;9352;50.888;4.466;2024-01-16T00:20:35;16.47;;;3.60;;
18445;SDS011;9352;50.888;4.466;2024-01-16T00:23:02;19.50;;;4.37;;
18445;SDS011;9352;50.888;4.466;2024-01-16T00:25:29;16.90;;;3.67;;
18445;SDS011;9352;50.888;4.466;2024-01-16T00:27:56;10.43;;;3.13;;
18445;SDS011;9352;50.888;4.466;2024-01-16T00:30:23;17.07;;;4.07;;
18445;SDS011;9352;50.888;4.466;2024-01-16T00:32:50;10.53;;;3.43;;
18445;SDS011;9352;50.888;4.466;2024-01-16T00:35:17;19.03;;;4.30;;
18445;SDS011;9352;50.888;4.466;2024-01-16T00:37:45;14.27;;;3.60;;
18445;SDS011;9352;50.888;4.466;2024-01-16T00:40:12;12.33;;;3.87;;
18445;SDS011;9352;50.888;4.466;2024-01-16T00:42:39;16.50;;;3.83;;
18445;SDS011;9352;50.888;4.466;2024-01-16T00:45:06;15.43;;;4.73;;
18445;SDS011;9352;50.888;4.466;2024-01-16T00:47:33;11.63;;;4.33;;
18445;SDS011;9352;50.888;4.466;2024-01-16T00:50:00;15.40;;;4.10;;
18445;SDS011;9352;50.888;4.466;2024-01-16T00:52:27;11.67;;;4.00;;
18445;SDS011;9352;50.888;4.466;2024-01-16T00:54:55;11.87;;;4.87;;
18445;SDS011;9352;50.888;4.466;2024-01-16T00:57:22;18.73;;;5.23;;
18445;SDS011;9352;50.888;4.466;2024-01-16T00:59:49;17.93;;;4.97;;
18445;SDS011;9352;50.888;4.466;2024-01-16T01:02:16;13.13;;;4.77;;
18445;SDS011;9352;50.888;4.466;2024-01-16T01:04:43;19.87;;;4.70;;
18445;SDS011;9352;50.888;4.466;2024-01-16T01:07:12;15.00;;;4.83;;
18445;SDS011;9352;50.888;4.466;2024-01-16T01:09:39;13.83;;;3.90;;
18445;SDS011;9352;50.888;4.466;2024-01-16T01:12:07;11.30;;;4.03;;
18445;SDS011;9352;50.888;4.466;2024-01-16T01:14:35;15.27;;;4.30;;
18445;SDS011;9352;50.888;4.466;2024-01-16T01:17:02;13.83;;;4.07;;
18445;SDS011;9352;50.888;4.466;2024-01-16T01:19:29;16.30;;;4.47;;
18445;SDS011;9352;50.888;4.466;2024-01-16T01:21:56;14.23;;;4.20;;
18445;SDS011;9352;50.888;4.466;2024-01-16T01:24:23;13.43;;;4.13;;
18445;SDS011;9352;50.888;4.466;2024-01-16T01:26:50;16.67;;;4.20;;
18445;SDS011;9352;50.888;4.466;2024-01-16T01:29:18;13.30;;;3.77;;
18445;SDS011;9352;50.888;4.466;2024-01-16T01:31:45;22.23;;;4.33;;
18445;SDS011;9352;50.888;4.466;2024-01-16T01:34:13;10.57;;;3.93;;
18445;SDS011;9352;50.888;4.466;2024-01-16T01:36:40;13.20;;;4.20;;
18445;SDS011;9352;50.888;4.466;2024-01-16T01:39:08;10.83;;;4.00;;
18445;SDS011;9352;50.888;4.466;2024-01-16T01:41:36;13.97;;;4.37;;
18445;SDS011;9352;50.888;4.466;2024-01-16T01:44:03;11.47;;;3.80;;
18445;SDS011;9352;50.888;4.466;2024-01-16T01:46:31;13.77;;;4.37;;
18445;SDS011;9352;50.888;4.466;2024-01-16T01:48:59;16.87;;;4.60;;
18445;SDS011;9352;50.888;4.466;2024-01-16T01:51:27;13.50;;;4.07;;
18445;SDS011;9352;50.888;4.466;2024-01-16T01:53:55;16.30;;;5.00;;
18445;SDS011;9352;50.888;4.466;2024-01-16T01:56:23;13.37;;;4.80;;
18445;SDS011;9352;50.888;4.466;2024-01-16T01:58:53;17.77;;;4.90;;
18445;SDS011;9352;50.888;4.466;2024-01-16T02:01:20;22.90;;;5.07;;
18445;SDS011;9352;50.888;4.466;2024-01-16T02:03:49;8.00;;;4.57;;
18445;SDS011;9352;50.888;4.466;2024-01-16T02:06:18;13.07;;;4.63;;
18445;SDS011;9352;50.888;4.466;2024-01-16T02:08:45;15.30;;;4.53;;
18445;SDS011;9352;50.888;4.466;2024-01-16T02:11:12;10.33;;;4.10;;
18445;SDS011;9352;50.888;4.466;2024-01-16T02:13:40;10.67;;;4.40;;
18445;SDS011;9352;50.888;4.466;2024-01-16T02:16:16;11.43;;;4.13;;
18445;SDS011;9352;50.888;4.466;2024-01-16T02:18:44;17.80;;;4.83;;
18445;SDS011;9352;50.888;4.466;2024-01-16T02:21:12;9.83;;;4.63;;
18445;SDS011;9352;50.888;4.466;2024-01-16T02:23:43;17.10;;;4.10;;
18445;SDS011;9352;50.888;4.466;2024-01-16T02:26:10;10.57;;;3.80;;
18445;SDS011;9352;50.888;4.466;2024-01-16T02:28:37;19.60;;;4.33;;
18445;SDS011;9352;50.888;4.466;2024-01-16T02:31:04;13.53;;;4.43;;
18445;SDS011;9352;50.888;4.466;2024-01-16T02:33:31;16.17;;;4.87;;
18445;SDS011;9352;50.888;4.466;2024-01-16T02:35:58;21.23;;;4.60;;
18445;SDS011;9352;50.888;4.466;2024-01-16T02:38:25;15.57;;;4.13;;
18445;SDS011;9352;50.888;4.466;2024-01-16T02:40:53;12.70;;;4.30;;
18445;SDS011;9352;50.888;4.466;2024-01-16T02:43:20;14.17;;;3.50;;
18445;SDS011;9352;50.888;4.466;2024-01-16T02:45:48;9.73;;;3.90;;
18445;SDS011;9352;50.888;4.466;2024-01-16T02:48:15;17.17;;;4.27;;
18445;SDS011;9352;50.888;4.466;2024-01-16T02:50:41;8.87;;;3.87;;
18445;SDS011;9352;50.888;4.466;2024-01-16T02:53:08;12.60;;;4.10;;
18445;SDS011;9352;50.888;4.466;2024-01-16T02:55:35;26.13;;;3.70;;
18445;SDS011;9352;50.888;4.466;2024-01-16T02:58:04;9.80;;;3.50;;
18445;SDS011;9352;50.888;4.466;2024-01-16T03:00:30;11.80;;;3.43;;
18445;SDS011;9352;50.888;4.466;2024-01-16T03:02:57;17.13;;;3.90;;
18445;SDS011;9352;50.888;4.466;2024-01-16T03:05:24;19.10;;;3.83;;
18445;SDS011;9352;50.888;4.466;2024-01-16T03:07:51;10.53;;;3.77;;
18445;SDS011;9352;50.888;4.466;2024-01-16T03:10:18;11.40;;;3.90;;
18445;SDS011;9352;50.888;4.466;2024-01-16T03:12:45;11.10;;;4.07;;
18445;SDS011;9352;50.888;4.466;2024-01-16T03:15:13;11.17;;;4.10;;
18445;SDS011;9352;50.888;4.466;2024-01-16T03:17:40;7.47;;;3.50;;
18445;SDS011;9352;50.888;4.466;2024-01-16T03:20:07;11.70;;;4.30;;
18445;SDS011;9352;50.888;4.466;2024-01-16T03:22:34;13.13;;;3.87;;
18445;SDS011;9352;50.888;4.466;2024-01-16T03:25:01;12.30;;;4.00;;
18445;SDS011;9352;50.888;4.466;2024-01-16T03:27:28;11.67;;;4.10;;
18445;SDS011;9352;50.888;4.466;2024-01-16T03:29:55;12.07;;;4.00;;
18445;SDS011;9352;50.888;4.466;2024-01-16T03:32:23;10.17;;;3.93;;
18445;SDS011;9352;50.888;4.466;2024-01-16T03:34:50;15.23;;;3.87;;
18445;SDS011;9352;50.888;4.466;2024-01-16T03:37:17;15.50;;;4.00;;
18445;SDS011;9352;50.888;4.466;2024-01-16T03:39:44;15.03;;;4.40;;
18445;SDS011;9352;50.888;4.466;2024-01-16T03:42:11;14.10;;;4.40;;
18445;SDS011;9352;50.888;4.466;2024-01-16T03:44:38;15.67;;;3.90;;
18445;SDS011;9352;50.888;4.466;2024-01-16T03:47:05;14.40;;;4.53;;
18445;SDS011;9352;50.888;4.466;2024-01-16T03:49:34;14.67;;;3.80;;
18445;SDS011;9352;50.888;4.466;2024-01-16T03:52:01;15.30;;;4.50;;
18445;SDS011;9352;50.888;4.466;2024-01-16T03:54:28;16.80;;;4.20;;
18445;SDS011;9352;50.888;4.466;2024-01-16T03:56:55;14.97;;;4.87;;
18445;SDS011;9352;50.888;4.466;2024-01-16T03:59:22;8.77;;;4.20;;
18445;SDS011;9352;50.888;4.466;2024-01-16T04:01:49;12.40;;;3.67;;
18445;SDS011;9352;50.888;4.466;2024-01-16T04:04:16;10.97;;;3.80;;
18445;SDS011;9352;50.888;4.466;2024-01-16T04:06:45;15.67;;;4.50;;
18445;SDS011;9352;50.888;4.466;2024-01-16T04:09:12;13.00;;;3.63;;
18445;SDS011;9352;50.888;4.466;2024-01-16T04:11:39;8.93;;;3.70;;
18445;SDS011;9352;50.888;4.466;2024-01-16T04:14:06;11.50;;;3.87;;
18445;SDS011;9352;50.888;4.466;2024-01-16T04:16:33;12.37;;;4.13;;
18445;SDS011;9352;50.888;4.466;2024-01-16T04:19:00;13.97;;;4.20;;
18445;SDS011;9352;50.888;4.466;2024-01-16T04:21:28;12.30;;;3.93;;
18445;SDS011;9352;50.888;4.466;2024-01-16T04:23:56;12.80;;;4.27;;
18445;SDS011;9352;50.888;4.466;2024-01-16T04:26:24;9.00;;;3.90;;
18445;SDS011;9352;50.888;4.466;2024-01-16T04:28:51;16.50;;;4.23;;
18445;SDS011;9352;50.888;4.466;2024-01-16T04:31:18;15.00;;;4.10;;
18445;SDS011;9352;50.888;4.466;2024-01-16T04:33:47;16.63;;;4.13;;
18445;SDS011;9352;50.888;4.466;2024-01-16T04:36:14;10.17;;;3.97;;
18445;SDS011;9352;50.888;4.466;2024-01-16T04:38:41;14.07;;;4.40;;
18445;SDS011;9352;50.888;4.466;2024-01-16T04:41:09;12.87;;;4.20;;
18445;SDS011;9352;50.888;4.466;2024-01-16T04:43:36;12.73;;;4.60;;
18445;SDS011;9352;50.888;4.466;2024-01-16T04:46:03;17.90;;;4.73;;
18445;SDS011;9352;50.888;4.466;2024-01-16T04:48:30;17.70;;;4.70;;
18445;SDS011;9352;50.888;4.466;2024-01-16T04:50:57;12.40;;;4.60;;
18445;SDS011;9352;50.888;4.466;2024-01-16T04:53:24;14.07;;;4.60;;
18445;SDS011;9352;50.888;4.466;2024-01-16T04:55:50;13.30;;;4.20;;
18445;SDS011;9352;50.888;4.466;2024-01-16T04:58:19;17.07;;;5.03;;
18445;SDS011;9352;50.888;4.466;2024-01-16T05:00:45;11.23;;;4.83;;
18445;SDS011;9352;50.888;4.466;2024-01-16T05:03:12;14.90;;;5.07;;
18445;SDS011;9352;50.888;4.466;2024-01-16T05:05:39;16.23;;;4.97;;
18445;SDS011;9352;50.888;4.466;2024-01-16T05:08:06;11.37;;;4.93;;
18445;SDS011;9352;50.888;4.466;2024-01-16T05:10:33;11.80;;;4.83;;
18445;SDS011;9352;50.888;4.466;2024-01-16T05:13:00;14.67;;;4.33;;
18445;SDS011;9352;50.888;4.466;2024-01-16T05:15:28;12.50;;;4.83;;
18445;SDS011;9352;50.888;4.466;2024-01-16T05:17:55;11.17;;;4.53;;
18445;SDS011;9352;50.888;4.466;2024-01-16T05:20:22;18.57;;;4.30;;
18445;SDS011;9352;50.888;4.466;2024-01-16T05:22:49;13.70;;;4.47;;
18445;SDS011;9352;50.888;4.466;2024-01-16T05:25:16;14.60;;;4.60;;
18445;SDS011;9352;50.888;4.466;2024-01-16T05:27:45;15.60;;;4.70;;
18445;SDS011;9352;50.888;4.466;2024-01-16T05:30:12;17.23;;;4.67;;
18445;SDS011;9352;50.888;4.466;2024-01-16T05:32:40;14.90;;;4.77;;
18445;SDS011;9352;50.888;4.466;2024-01-16T05:35:07;13.83;;;4.50;;
18445;SDS011;9352;50.888;4.466;2024-01-16T05:37:35;13.90;;;4.30;;
18445;SDS011;9352;50.888;4.466;2024-01-16T05:40:02;11.60;;;4.17;;
18445;SDS011;9352;50.888;4.466;2024-01-16T05:42:30;18.30;;;5.03;;
18445;SDS011;9352;50.888;4.466;2024-01-16T05:44:57;12.67;;;4.40;;
18445;SDS011;9352;50.888;4.466;2024-01-16T05:47:24;11.87;;;4.50;;
18445;SDS011;9352;50.888;4.466;2024-01-16T05:49:54;17.63;;;4.10;;
18445;SDS011;9352;50.888;4.466;2024-01-16T05:52:21;10.70;;;4.07;;
18445;SDS011;9352;50.888;4.466;2024-01-16T05:54:48;13.33;;;4.57;;
18445;SDS011;9352;50.888;4.466;2024-01-16T05:57:15;19.43;;;4.37;;
18445;SDS011;9352;50.888;4.466;2024-01-16T05:59:42;9.20;;;4.30;;
18445;SDS011;9352;50.888;4.466;2024-01-16T06:02:09;25.60;;;4.77;;
18445;SDS011;9352;50.888;4.466;2024-01-16T06:04:36;15.97;;;5.23;;
18445;SDS011;9352;50.888;4.466;2024-01-16T06:07:05;12.63;;;4.90;;
18445;SDS011;9352;50.888;4.466;2024-01-16T06:09:32;8.97;;;4.53;;
18445;SDS011;9352;50.888;4.466;2024-01-16T06:11:59;11.87;;;4.43;;
18445;SDS011;9352;50.888;4.466;2024-01-16T06:14:26;13.00;;;4.70;;
18445;SDS011;9352;50.888;4.466;2024-01-16T06:16:53;12.60;;;4.80;;
18445;SDS011;9352;50.888;4.466;2024-01-16T06:19:20;17.90;;;4.53;;
18445;SDS011;9352;50.888;4.466;2024-01-16T06:21:47;12.87;;;4.93;;
18445;SDS011;9352;50.888;4.466;2024-01-16T06:24:15;13.23;;;4.73;;
18445;SDS011;9352;50.888;4.466;2024-01-16T06:26:42;13.20;;;4.57;;
18445;SDS011;9352;50.888;4.466;2024-01-16T06:29:09;17.73;;;4.73;;
18445;SDS011;9352;50.888;4.466;2024-01-16T06:31:36;11.17;;;4.27;;
18445;SDS011;9352;50.888;4.466;2024-01-16T06:34:03;12.93;;;4.47;;
18445;SDS011;9352;50.888;4.466;2024-01-16T06:36:30;10.10;;;3.90;;
18445;SDS011;9352;50.888;4.466;2024-01-16T06:38:57;17.37;;;4.27;;
18445;SDS011;9352;50.888;4.466;2024-01-16T06:41:25;15.00;;;4.53;;
18445;SDS011;9352;50.888;4.466;2024-01-16T06:43:52;9.73;;;4.87;;
18445;SDS011;9352;50.888;4.466;2024-01-16T06:46:19;11.30;;;4.70;;
18445;SDS011;9352;50.888;4.466;2024-01-16T06:48:46;9.40;;;4.50;;
18445;SDS011;9352;50.888;4.466;2024-01-16T06:51:13;14.43;;;4.90;;
18445;SDS011;9352;50.888;4.466;2024-01-16T06:53:41;12.00;;;5.00;;
18445;SDS011;9352;50.888;4.466;2024-01-16T06:56:08;17.97;;;4.93;;
18445;SDS011;9352;50.888;4.466;2024-01-16T06:58:36;14.47;;;4.73;;
18445;SDS011;9352;50.888;4.466;2024-01-16T07:01:03;9.83;;;4.10;;
18445;SDS011;9352;50.888;4.466;2024-01-16T07:03:30;9.37;;;4.87;;
18445;SDS011;9352;50.888;4.466;2024-01-16T07:05:57;14.30;;;4.60;;
18445;SDS011;9352;50.888;4.466;2024-01-16T07:08:24;14.73;;;4.70;;
18445;SDS011;9352;50.888;4.466;2024-01-16T07:10:51;10.60;;;4.50;;
18445;SDS011;9352;50.888;4.466;2024-01-16T07:13:18;10.23;;;4.10;;
18445;SDS011;9352;50.888;4.466;2024-01-16T07:15:46;12.10;;;6.43;;
18445;SDS011;9352;50.888;4.466;2024-01-16T07:18:13;12.67;;;4.57;;
18445;SDS011;9352;50.888;4.466;2024-01-16T07:20:40;15.50;;;4.80;;
18445;SDS011;9352;50.888;4.466;2024-01-16T07:23:07;12.13;;;4.73;;
18445;SDS011;9352;50.888;4.466;2024-01-16T07:25:34;9.83;;;4.67;;
18445;SDS011;9352;50.888;4.466;2024-01-16T07:28:01;17.10;;;5.10;;
18445;SDS011;9352;50.888;4.466;2024-01-16T07:30:28;12.97;;;4.37;;
18445;SDS011;9352;50.888;4.466;2024-01-16T07:32:56;16.47;;;4.60;;
18445;SDS011;9352;50.888;4.466;2024-01-16T07:35:23;13.27;;;4.60;;
18445;SDS011;9352;50.888;4.466;2024-01-16T07:37:50;15.20;;;3.83;;
18445;SDS011;9352;50.888;4.466;2024-01-16T07:40:17;12.60;;;4.40;;
18445;SDS011;9352;50.888;4.466;2024-01-16T07:42:43;13.73;;;4.37;;
18445;SDS011;9352;50.888;4.466;2024-01-16T07:45:11;14.50;;;4.63;;
18445;SDS011;9352;50.888;4.466;2024-01-16T07:47:38;11.73;;;5.03;;
18445;SDS011;9352;50.888;4.466;2024-01-16T07:50:07;13.63;;;4.80;;
18445;SDS011;9352;50.888;4.466;2024-01-16T07:52:36;11.03;;;4.67;;
18445;SDS011;9352;50.888;4.466;2024-01-16T07:55:04;13.10;;;4.60;;
18445;SDS011;9352;50.888;4.466;2024-01-16T07:57:31;12.13;;;4.27;;
18445;SDS011;9352;50.888;4.466;2024-01-16T07:59:58;17.13;;;4.60;;
18445;SDS011;9352;50.888;4.466;2024-01-16T08:02:26;15.37;;;5.00;;
18445;SDS011;9352;50.888;4.466;2024-01-16T08:04:58;11.67;;;4.77;;
18445;SDS011;9352;50.888;4.466;2024-01-16T08:07:27;13.90;;;4.43;;
18445;SDS011;9352;50.888;4.466;2024-01-16T08:09:54;11.23;;;4.63;;
18445;SDS011;9352;50.888;4.466;2024-01-16T08:12:21;18.13;;;4.50;;
18445;SDS011;9352;50.888;4.466;2024-01-16T08:14:48;16.70;;;4.57;;
18445;SDS011;9352;50.888;4.466;2024-01-16T08:17:15;16.80;;;4.73;;
18445;SDS011;9352;50.888;4.466;2024-01-16T08:19:42;9.63;;;4.20;;
18445;SDS011;9352;50.888;4.466;2024-01-16T08:22:09;15.33;;;4.50;;
18445;SDS011;9352;50.888;4.466;2024-01-16T08:24:38;17.73;;;4.70;;
18445;SDS011;9352;50.888;4.466;2024-01-16T08:27:05;12.47;;;4.07;;
18445;SDS011;9352;50.888;4.466;2024-01-16T08:29:32;14.57;;;4.20;;
18445;SDS011;9352;50.888;4.466;2024-01-16T08:31:59;14.83;;;4.00;;
18445;SDS011;9352;50.888;4.466;2024-01-16T08:34:25;18.17;;;4.33;;
18445;SDS011;9352;50.888;4.466;2024-01-16T08:36:52;9.20;;;3.80;;
18445;SDS011;9352;50.888;4.466;2024-01-16T08:39:21;15.10;;;3.80;;
18445;SDS011;9352;50.888;4.466;2024-01-16T08:41:50;11.63;;;3.83;;
18445;SDS011;9352;50.888;4.466;2024-01-16T08:44:17;14.00;;;4.17;;
18445;SDS011;9352;50.888;4.466;2024-01-16T08:46:44;10.20;;;4.30;;
18445;SDS011;9352;50.888;4.466;2024-01-16T08:49:11;10.17;;;4.07;;
18445;SDS011;9352;50.888;4.466;2024-01-16T08:51:39;16.67;;;4.10;;
18445;SDS011;9352;50.888;4.466;2024-01-16T08:54:06;17.13;;;4.33;;
18445;SDS011;9352;50.888;4.466;2024-01-16T08:56:33;12.57;;;4.20;;
18445;SDS011;9352;50.888;4.466;2024-01-16T08:59:02;10.03;;;4.00;;
18445;SDS011;9352;50.888;4.466;2024-01-16T09:01:28;9.47;;;3.93;;
18445;SDS011;9352;50.888;4.466;2024-01-16T09:03:55;13.73;;;3.57;;
18445;SDS011;9352;50.888;4.466;2024-01-16T09:06:22;11.90;;;3.50;;
18445;SDS011;9352;50.888;4.466;2024-01-16T09:08:49;12.37;;;3.77;;
18445;SDS011;9352;50.888;4.466;2024-01-16T09:11:16;6.73;;;3.40;;
18445;SDS011;9352;50.888;4.466;2024-01-16T09:13:43;7.33;;;3.57;;
18445;SDS011;9352;50.888;4.466;2024-01-16T09:16:11;10.93;;;3.03;;
18445;SDS011;9352;50.888;4.466;2024-01-16T09:18:38;12.93;;;3.97;;
18445;SDS011;9352;50.888;4.466;2024-01-16T09:21:05;9.23;;;3.23;;
18445;SDS011;9352;50.888;4.466;2024-01-16T09:23:32;12.73;;;3.60;;
18445;SDS011;9352;50.888;4.466;2024-01-16T09:25:59;12.57;;;3.50;;
18445;SDS011;9352;50.888;4.466;2024-01-16T09:28:26;6.97;;;3.80;;
18445;SDS011;9352;50.888;4.466;2024-01-16T09:30:54;11.57;;;3.00;;
18445;SDS011;9352;50.888;4.466;2024-01-16T09:33:23;14.27;;;3.40;;
18445;SDS011;9352;50.888;4.466;2024-01-16T09:35:51;9.90;;;3.77;;
18445;SDS011;9352;50.888;4.466;2024-01-16T09:38:18;9.67;;;3.50;;
18445;SDS011;9352;50.888;4.466;2024-01-16T09:40:45;19.40;;;3.87;;
18445;SDS011;9352;50.888;4.466;2024-01-16T09:43:13;13.13;;;3.40;;
18445;SDS011;9352;50.888;4.466;2024-01-16T09:45:40;10.37;;;3.77;;
18445;SDS011;9352;50.888;4.466;2024-01-16T09:48:07;8.53;;;3.07;;
18445;SDS011;9352;50.888;4.466;2024-01-16T09:50:36;10.37;;;3.70;;
18445;SDS011;9352;50.888;4.466;2024-01-16T09:53:03;9.50;;;3.50;;
18445;SDS011;9352;50.888;4.466;2024-01-16T09:55:30;8.80;;;3.57;;
18445;SDS011;9352;50.888;4.466;2024-01-16T09:57:57;12.43;;;3.70;;
18445;SDS011;9352;50.888;4.466;2024-01-16T10:00:25;7.80;;;3.47;;
18445;SDS011;9352;50.888;4.466;2024-01-16T10:02:53;10.93;;;2.83;;
18445;SDS011;9352;50.888;4.466;2024-01-16T10:05:23;15.60;;;3.55;;
18445;SDS011;9352;50.888;4.466;2024-01-16T10:07:52;15.93;;;3.93;;
18445;SDS011;9352;50.888;4.466;2024-01-16T10:10:20;9.63;;;3.73;;
18445;SDS011;9352;50.888;4.466;2024-01-16T10:12:47;7.90;;;3.13;;
18445;SDS011;9352;50.888;4.466;2024-01-16T10:15:16;11.37;;;3.60;;
18445;SDS011;9352;50.888;4.466;2024-01-16T10:17:45;10.50;;;3.67;;
18445;SDS011;9352;50.888;4.466;2024-01-16T10:20:12;12.07;;;3.37;;
18445;SDS011;9352;50.888;4.466;2024-01-16T10:22:42;12.35;;;3.17;;
18445;SDS011;9352;50.888;4.466;2024-01-16T10:25:20;16.07;;;3.93;;
18445;SDS011;9352;50.888;4.466;2024-01-16T10:27:48;12.20;;;3.13;;
18445;SDS011;9352;50.888;4.466;2024-01-16T10:30:15;13.47;;;3.20;;
18445;SDS011;9352;50.888;4.466;2024-01-16T10:32:48;15.30;;;3.47;;
18445;SDS011;9352;50.888;4.466;2024-01-16T10:35:15;19.63;;;3.10;;
18445;SDS011;9352;50.888;4.466;2024-01-16T10:37:42;9.30;;;3.27;;
18445;SDS011;9352;50.888;4.466;2024-01-16T10:40:12;6.83;;;3.20;;
18445;SDS011;9352;50.888;4.466;2024-01-16T10:42:41;7.88;;;3.40;;
18445;SDS011;9352;50.888;4.466;2024-01-16T10:45:11;15.90;;;3.28;;
18445;SDS011;9352;50.888;4.466;2024-01-16T10:47:43;11.00;;;4.53;;
18445;SDS011;9352;50.888;4.466;2024-01-16T10:50:11;15.07;;;3.30;;
18445;SDS011;9352;50.888;4.466;2024-01-16T10:52:39;24.52;;;3.83;;
18445;SDS011;9352;50.888;4.466;2024-01-16T10:55:14;10.32;;;3.33;;
18445;SDS011;9352;50.888;4.466;2024-01-16T10:57:46;5.63;;;3.42;;
18445;SDS011;9352;50.888;4.466;2024-01-16T11:00:14;12.90;;;3.30;;
18445;SDS011;9352;50.888;4.466;2024-01-16T11:02:48;6.97;;;3.15;;
18445;SDS011;9352;50.888;4.466;2024-01-16T11:05:16;5.32;;;2.72;;
18445;SDS011;9352;50.888;4.466;2024-01-16T11:07:43;10.73;;;3.30;;
18445;SDS011;9352;50.888;4.466;2024-01-16T11:10:11;10.80;;;3.22;;
18445;SDS011;9352;50.888;4.466;2024-01-16T11:12:40;10.18;;;3.47;;
18445;SDS011;9352;50.888;4.466;2024-01-16T11:15:08;10.50;;;3.30;;
18445;SDS011;9352;50.888;4.466;2024-01-16T11:17:37;8.32;;;3.17;;
18445;SDS011;9352;50.888;4.466;2024-01-16T11:20:06;13.68;;;3.38;;
18445;SDS011;9352;50.888;4.466;2024-01-16T11:22:37;10.13;;;3.55;;
18445;SDS011;9352;50.888;4.466;2024-01-16T11:25:09;7.95;;;3.28;;
18445;SDS011;9352;50.888;4.466;2024-01-16T11:27:37;7.07;;;3.53;;
18445;SDS011;9352;50.888;4.466;2024-01-16T11:30:06;10.48;;;3.30;;
18445;SDS011;9352;50.888;4.466;2024-01-16T11:32:34;11.30;;;3.22;;
18445;SDS011;9352;50.888;4.466;2024-01-16T11:35:02;9.10;;;2.85;;
18445;SDS011;9352;50.888;4.466;2024-01-16T11:37:30;13.20;;;3.38;;
18445;SDS011;9352;50.888;4.466;2024-01-16T11:42:49;7.78;;;3.38;;
18445;SDS011;9352;50.888;4.466;2024-01-16T11:48:16;11.98;;;3.42;;
18445;SDS011;9352;50.888;4.466;2024-01-16T11:50:43;11.23;;;3.00;;
18445;SDS011;9352;50.888;4.466;2024-01-16T11:53:11;11.70;;;3.67;;
18445;SDS011;9352;50.888;4.466;2024-01-16T11:55:58;8.98;;;2.78;;
18445;SDS011;9352;50.888;4.466;2024-01-16T11:58:54;11.35;;;3.03;;
18445;SDS011;9352;50.888;4.466;2024-01-16T12:01:33;6.75;;;3.03;;
18445;SDS011;9352;50.888;4.466;2024-01-16T12:04:02;4.05;;;2.90;;
18445;SDS011;9352;50.888;4.466;2024-01-16T12:06:29;11.18;;;3.20;;
18445;SDS011;9352;50.888;4.466;2024-01-16T12:09:10;8.05;;;3.08;;
18445;SDS011;9352;50.888;4.466;2024-01-16T12:11:38;14.10;;;3.63;;
18445;SDS011;9352;50.888;4.466;2024-01-16T12:14:05;19.35;;;3.88;;
18445;SDS011;9352;50.888;4.466;2024-01-16T12:16:33;9.80;;;3.30;;
18445;SDS011;9352;50.888;4.466;2024-01-16T12:19:06;14.17;;;3.40;;
18445;SDS011;9352;50.888;4.466;2024-01-16T12:21:34;15.77;;;3.25;;
18445;SDS011;9352;50.888;4.466;2024-01-16T12:24:02;10.80;;;3.53;;
18445;SDS011;9352;50.888;4.466;2024-01-16T12:26:29;10.20;;;3.70;;
18445;SDS011;9352;50.888;4.466;2024-01-16T12:28:57;12.63;;;3.70;;
18445;SDS011;9352;50.888;4.466;2024-01-16T12:31:25;8.85;;;3.65;;
18445;SDS011;9352;50.888;4.466;2024-01-16T12:33:54;12.43;;;3.53;;
18445;SDS011;9352;50.888;4.466;2024-01-16T12:36:30;11.80;;;4.72;;
18445;SDS011;9352;50.888;4.466;2024-01-16T12:38:57;13.90;;;3.03;;
18445;SDS011;9352;50.888;4.466;2024-01-16T12:41:24;13.47;;;3.93;;
18445;SDS011;9352;50.888;4.466;2024-01-16T12:43:52;11.10;;;3.15;;
18445;SDS011;9352;50.888;4.466;2024-01-16T12:46:19;5.40;;;3.22;;
18445;SDS011;9352;50.888;4.466;2024-01-16T12:48:46;10.85;;;3.30;;
18445;SDS011;9352;50.888;4.466;2024-01-16T12:51:21;24.45;;;4.18;;
18445;SDS011;9352;50.888;4.466;2024-01-16T12:53:48;7.53;;;2.93;;
18445;SDS011;9352;50.888;4.466;2024-01-16T12:56:18;11.98;;;3.20;;
18445;SDS011;9352;50.888;4.466;2024-01-16T12:58:46;11.55;;;3.33;;
18445;SDS011;9352;50.888;4.466;2024-01-16T13:01:22;8.98;;;2.90;;
18445;SDS011;9352;50.888;4.466;2024-01-16T13:03:50;7.50;;;3.13;;
18445;SDS011;9352;50.888;4.466;2024-01-16T13:06:17;7.18;;;3.35;;
18445;SDS011;9352;50.888;4.466;2024-01-16T13:08:46;7.65;;;2.90;;
18445;SDS011;9352;50.888;4.466;2024-01-16T13:11:13;18.08;;;3.50;;
18445;SDS011;9352;50.888;4.466;2024-01-16T13:13:44;4.25;;;2.72;;
18445;SDS011;9352;50.888;4.466;2024-01-16T13:16:11;4.78;;;2.58;;
18445;SDS011;9352;50.888;4.466;2024-01-16T13:18:38;9.13;;;3.15;;
18445;SDS011;9352;50.888;4.466;2024-01-16T13:21:05;9.93;;;2.83;;
18445;SDS011;9352;50.888;4.466;2024-01-16T13:23:32;8.05;;;3.10;;
18445;SDS011;9352;50.888;4.466;2024-01-16T13:26:01;10.48;;;3.13;;
18445;SDS011;9352;50.888;4.466;2024-01-16T13:28:29;10.05;;;2.92;;
18445;SDS011;9352;50.888;4.466;2024-01-16T13:30:57;11.50;;;3.42;;
18445;SDS011;9352;50.888;4.466;2024-01-16T13:33:24;7.55;;;3.20;;
18445;SDS011;9352;50.888;4.466;2024-01-16T13:35:52;7.30;;;3.13;;
18445;SDS011;9352;50.888;4.466;2024-01-16T13:38:20;6.68;;;3.28;;
18445;SDS011;9352;50.888;4.466;2024-01-16T13:40:47;7.70;;;3.08;;
18445;SDS011;9352;50.888;4.466;2024-01-16T13:43:16;7.10;;;2.97;;
18445;SDS011;9352;50.888;4.466;2024-01-16T13:45:43;10.73;;;2.70;;
18445;SDS011;9352;50.888;4.466;2024-01-16T13:48:14;9.38;;;3.40;;
18445;SDS011;9352;50.888;4.466;2024-01-16T13:50:42;16.77;;;3.28;;
18445;SDS011;9352;50.888;4.466;2024-01-16T13:53:09;5.80;;;2.83;;
18445;SDS011;9352;50.888;4.466;2024-01-16T13:55:38;7.78;;;3.22;;
18445;SDS011;9352;50.888;4.466;2024-01-16T13:58:06;5.18;;;2.75;;
18445;SDS011;9352;50.888;4.466;2024-01-16T14:00:34;7.05;;;2.88;;
18445;SDS011;9352;50.888;4.466;2024-01-16T14:03:01;7.50;;;3.53;;
18445;SDS011;9352;50.888;4.466;2024-01-16T14:05:30;11.23;;;3.53;;
18445;SDS011;9352;50.888;4.466;2024-01-16T14:07:57;5.03;;;3.10;;
18445;SDS011;9352;50.888;4.466;2024-01-16T14:10:24;7.10;;;2.97;;
18445;SDS011;9352;50.888;4.466;2024-01-16T14:12:51;11.07;;;3.55;;
18445;SDS011;9352;50.888;4.466;2024-01-16T14:15:19;12.90;;;3.72;;
18445;SDS011;9352;50.888;4.466;2024-01-16T14:17:50;12.95;;;3.20;;
18445;SDS011;9352;50.888;4.466;2024-01-16T14:20:19;6.82;;;2.92;;
18445;SDS011;9352;50.888;4.466;2024-01-16T14:22:48;11.05;;;3.08;;
18445;SDS011;9352;50.888;4.466;2024-01-16T14:25:15;6.78;;;3.00;;
18445;SDS011;9352;50.888;4.466;2024-01-16T14:27:44;7.80;;;3.00;;
18445;SDS011;9352;50.888;4.466;2024-01-16T14:30:12;11.88;;;2.92;;
18445;SDS011;9352;50.888;4.466;2024-01-16T14:32:40;6.67;;;2.63;;
18445;SDS011;9352;50.888;4.466;2024-01-16T14:35:10;6.72;;;2.78;;
18445;SDS011;9352;50.888;4.466;2024-01-16T14:37:38;17.10;;;2.95;;
18445;SDS011;9352;50.888;4.466;2024-01-16T14:40:06;9.07;;;2.72;;
18445;SDS011;9352;50.888;4.466;2024-01-16T14:42:38;7.60;;;3.17;;
18445;SDS011;9352;50.888;4.466;2024-01-16T14:45:05;8.52;;;2.58;;
18445;SDS011;9352;50.888;4.466;2024-01-16T14:47:32;7.53;;;3.00;;
18445;SDS011;9352;50.888;4.466;2024-01-16T14:49:59;15.32;;;3.33;;
18445;SDS011;9352;50.888;4.466;2024-01-16T14:52:30;15.15;;;2.90;;
18445;SDS011;9352;50.888;4.466;2024-01-16T14:54:57;9.02;;;2.70;;
18445;SDS011;9352;50.888;4.466;2024-01-16T14:57:24;8.87;;;2.67;;
18445;SDS011;9352;50.888;4.466;2024-01-16T14:59:52;9.85;;;3.33;;